Airfield :
LOGIN :

Register | Disclaimer

   EN    FR    IT 

 










Legend :    VFR   Marginal VFR   IFR   Intensive IFR   Very Intensive IFR
Visi :
Ceiling :
>= 8 km
>= 3000ft
5 to 8 km
1000 to 3000 ft
1500m to 5 km
500 to 1000 ft
800 to 1500m
200 to 500 ft
< 800m
< 200 ft
Symbols :   Thunderstorms  Fog  Heavy snow  Heavy precipitations  Wind > 20 kt
SIGMETs :     Misc.  Thunderstorms  Icing  Turbulence  Mountain Waves  Volcanic Ashes






- Airport Elevation : 1504 ft
- IATA code : PNA


LEPP - Noain Pamplona

CURRENT METAR :
  • 021800Z 35017KT 320V020 9999 FEW020 BKN030 17/11 Q1020

EXPIRED METARs :
  • 021730Z 34017KT 310V010 9999 FEW015 SCT025 18/12 Q1020
  • 021700Z 35020KT 9999 FEW018 BKN025 17/13 Q1020
  • 021630Z 34017G27KT 300V020 9999 SCT025 19/13 Q1019
  • 021600Z 34017KT 300V010 9999 SCT030 18/12 Q1019
  • 021530Z 35016KT 320V020 9999 SCT030 20/12 Q1019

TAF TAF LEPP
Valid from the 02 at 15:00 until the 03 at 15:00 UTC


021400Z 0215/0315 36016KT 9999 FEW015 SCT025 TX22/0313Z TN12/0305Z
TEMPO 0215/0220 33020G30KT
TEMPO 0220/0308 30009KT
PROB40
TEMPO 0311/0315 35018G28KT



MET'MAP, your aeronautical weather chart ! - Copyright ORBIFLY December 2007 - Disclaimer

ORBIFLY MET'MAP TEAM :

Programming & Development : Alexandra Zaïnal
Concept & original design : Baudouin d'Aumeries
Assistance for programming : Marc-Olivier Méhu
Technical & hardware support : Manuel Goepfert

Contact : metmap@orbifly.com




SOURCES & CREDITS :

   NOAA